WEATHER/FLIGHT PLANNING

Hattiesburg Radar

 

 

 

 

Weather Links

Flight Planning Links

 

METAR

2014/04/24 03:53 KHBG 240353Z AUTO 00000KT 10SM BKN070 18/16 A2993 RMK AO2 SLP131 T01780161

TAF

2014/04/23 18:33 TAF KHBG 231730Z 2318/2418 03006KT P6SM SCT050 FM240000 VRB03KT P6SM SKC FM241000 00000KT 2SM BR SCT005 FM241400 20002KT P6SM FEW250